SBEG Airport Information

Runway Information
Runway 10 Length 8858 ft width 148 ft
Elevation 0 ft Threshold 0 ft Heading 0
Runway 28 Length 8858 ft Width 148 ft
Elevation 0 ft Threshold 0 ft Heading 0
Airport Frequencies
Type APP Name MANAUS APP Frequency 119.1 MHZ
Type ATIS Name ATIS Frequency 127.65 MHZ
Type GND Name GND Frequency 121.9 MHZ
Type OPS Name OPS Frequency 122.5 MHZ
Type TWR Name TWR Frequency 118.3 MHZ
Airport Navaids
Type VOR-DME Name Manaus Frequency 115200 KHZ
Type NDB Name Manaus Frequency 340 KHZ
Airport Weather Information & NOTAM
ADDS - METARS form results

(0650 UTC 22 April 2018)
 
METAR text: SBEG 220600Z 00000KT 9999 FEW010 SCT100 22/21 Q1010
Conditions at: SBEG (EDUARDO GOMES IN, BR) observed 0600 UTC 22 April 2018
Temperature: 22.0°C (72°F)
Dewpoint: 21.0°C (70°F) [RH = 94%]
Pressure (altimeter): 29.82 inches Hg (1010.0 mb)
Winds: calm
Visibility: 6 or more miles (10+ km)
Ceiling: at least 12,000 feet AGL
Clouds: few clouds at 1000 feet AGL
scattered clouds at 10000 feet AGL
Weather: no significant weather observed at this time